createdAt,value
2022-10-06T00:01:12.983Z,27.20
2022-10-06T00:03:41.254Z,27.20
2022-10-06T00:06:13.802Z,27.20
2022-10-06T00:08:43.941Z,27.20
2022-10-06T00:11:14.958Z,27.20
2022-10-06T00:13:42.995Z,27.20
2022-10-06T00:16:12.413Z,27.20
2022-10-06T00:18:40.630Z,27.20
2022-10-06T00:21:09.913Z,27.20
2022-10-06T00:23:37.792Z,27.20
2022-10-06T00:26:06.263Z,27.10
2022-10-06T00:28:34.582Z,27.10
2022-10-06T00:31:03.390Z,27.10
2022-10-06T00:33:31.156Z,27.10
2022-10-06T00:36:00.869Z,27.10
2022-10-06T00:38:30.625Z,27.10
2022-10-06T00:40:58.637Z,27.10
2022-10-06T00:43:52.342Z,27.10
2022-10-06T00:46:29.497Z,27.10
2022-10-06T00:49:03.450Z,27.10
2022-10-06T00:51:34.089Z,27.10
2022-10-06T00:54:04.559Z,27.10
2022-10-06T00:56:33.069Z,27.10
2022-10-06T00:59:01.201Z,27.10
2022-10-06T01:01:32.445Z,27.10
2022-10-06T01:04:09.137Z,27.00
2022-10-06T01:06:47.186Z,27.00
2022-10-06T01:09:19.330Z,27.00
2022-10-06T01:11:50.901Z,27.00
2022-10-06T01:14:20.562Z,27.00
2022-10-06T01:16:57.027Z,27.00
2022-10-06T01:19:43.199Z,27.00
2022-10-06T01:22:15.469Z,27.00
2022-10-06T01:24:47.763Z,27.00
2022-10-06T01:27:17.518Z,27.00
2022-10-06T01:29:45.986Z,27.00
2022-10-06T01:32:13.739Z,27.00
2022-10-06T01:34:41.476Z,27.00
2022-10-06T01:37:09.203Z,27.00
2022-10-06T01:39:36.937Z,26.90
2022-10-06T01:42:06.760Z,26.90
2022-10-06T01:44:34.513Z,26.90
2022-10-06T01:47:05.456Z,26.90
2022-10-06T01:49:33.349Z,26.90
2022-10-06T01:52:01.170Z,27.00
2022-10-06T01:54:29.179Z,27.00
2022-10-06T01:56:56.969Z,26.90
2022-10-06T01:59:26.357Z,26.90
2022-10-06T02:01:54.179Z,26.90
2022-10-06T02:04:22.134Z,26.90
2022-10-06T02:06:50.549Z,26.90
2022-10-06T02:09:18.361Z,26.90
2022-10-06T02:11:46.175Z,26.90
2022-10-06T02:14:14.026Z,26.90
2022-10-06T02:16:43.619Z,26.90
2022-10-06T02:19:11.951Z,26.90
2022-10-06T02:21:42.174Z,26.90
2022-10-06T02:24:10.050Z,26.90
2022-10-06T02:26:37.812Z,26.90
2022-10-06T02:29:05.523Z,26.90
2022-10-06T02:31:33.323Z,26.90
2022-10-06T02:34:02.430Z,26.90
2022-10-06T02:36:30.409Z,26.90
2022-10-06T02:38:58.384Z,26.90
2022-10-06T02:41:26.385Z,26.90
2022-10-06T02:43:55.103Z,26.90
2022-10-06T02:46:24.268Z,26.90
2022-10-06T02:48:53.730Z,26.90
2022-10-06T02:51:23.775Z,26.90
2022-10-06T02:53:52.841Z,26.90
2022-10-06T02:56:23.350Z,26.90
2022-10-06T02:58:52.102Z,26.80
2022-10-06T03:01:24.088Z,26.90
2022-10-06T03:03:52.187Z,26.90
2022-10-06T03:06:23.928Z,26.80
2022-10-06T03:08:52.825Z,26.90
2022-10-06T03:11:22.583Z,26.80
2022-10-06T03:13:52.128Z,26.80
2022-10-06T03:16:22.822Z,26.80
2022-10-06T03:18:53.382Z,26.80
2022-10-06T03:21:24.741Z,26.80
2022-10-06T03:23:54.411Z,26.80
2022-10-06T03:26:24.646Z,26.80
2022-10-06T03:28:53.018Z,26.80
2022-10-06T03:31:20.951Z,26.80
2022-10-06T03:33:48.739Z,26.80
2022-10-06T03:36:20.449Z,26.80
2022-10-06T03:38:49.750Z,26.80
2022-10-06T03:41:21.014Z,26.80
2022-10-06T03:43:51.122Z,26.80
2022-10-06T03:46:21.280Z,26.80
2022-10-06T03:48:51.760Z,26.80
2022-10-06T03:51:23.396Z,26.80
2022-10-06T03:53:53.002Z,26.80
2022-10-06T03:56:23.402Z,26.80
2022-10-06T03:58:53.855Z,26.80
2022-10-06T04:01:26.463Z,26.80
2022-10-06T04:03:55.619Z,26.80
2022-10-06T04:06:25.036Z,26.80
2022-10-06T04:08:55.550Z,26.80
2022-10-06T04:11:26.600Z,26.80
2022-10-06T04:14:00.407Z,26.80
2022-10-06T04:16:31.406Z,26.80
2022-10-06T04:19:02.284Z,26.80
2022-10-06T04:21:33.589Z,26.80
2022-10-06T04:24:02.657Z,26.80
2022-10-06T04:26:33.190Z,26.80
2022-10-06T04:29:01.608Z,26.80
2022-10-06T04:31:31.846Z,26.80
2022-10-06T04:34:02.094Z,26.80
2022-10-06T04:36:32.836Z,26.80
2022-10-06T04:39:04.820Z,26.80
2022-10-06T04:41:36.426Z,26.80
2022-10-06T04:44:05.732Z,26.80
2022-10-06T04:46:43.369Z,26.80
2022-10-06T04:49:18.578Z,26.80
2022-10-06T04:51:47.421Z,26.70
2022-10-06T04:54:16.779Z,26.80
2022-10-06T04:56:44.553Z,26.70
2022-10-06T04:59:12.428Z,26.80
2022-10-06T05:01:40.519Z,26.80
2022-10-06T05:04:08.256Z,26.70
2022-10-06T05:06:38.993Z,26.70
2022-10-06T05:09:09.778Z,26.70
2022-10-06T05:11:39.156Z,26.70
2022-10-06T05:14:07.033Z,26.70
2022-10-06T05:16:37.566Z,26.70
2022-10-06T05:19:05.463Z,26.70
2022-10-06T05:21:34.245Z,26.70
2022-10-06T05:24:02.843Z,26.70
2022-10-06T05:26:35.651Z,26.70
2022-10-06T05:29:05.437Z,26.70
2022-10-06T05:31:38.734Z,26.70
2022-10-06T05:34:07.019Z,26.70
2022-10-06T05:36:35.590Z,26.70
2022-10-06T05:39:05.055Z,26.70
2022-10-06T05:41:34.661Z,26.70
2022-10-06T05:44:04.793Z,26.70
2022-10-06T05:46:34.442Z,26.70
2022-10-06T05:49:05.174Z,26.70
2022-10-06T05:51:35.322Z,26.70
2022-10-06T05:54:04.083Z,26.70
2022-10-06T05:56:33.842Z,26.70
2022-10-06T05:59:02.225Z,26.70
2022-10-06T06:01:33.514Z,26.70
2022-10-06T06:04:03.790Z,26.70
2022-10-06T06:06:34.012Z,26.70
2022-10-06T06:09:06.732Z,26.70
2022-10-06T06:11:37.003Z,26.70
2022-10-06T06:14:07.860Z,26.70
2022-10-06T06:16:37.069Z,26.70
2022-10-06T06:19:04.934Z,26.80
2022-10-06T06:21:34.058Z,26.80
2022-10-06T06:24:01.913Z,26.70
2022-10-06T06:26:32.123Z,26.70
2022-10-06T06:29:04.019Z,26.70
2022-10-06T06:31:35.240Z,26.70
2022-10-06T06:34:07.023Z,26.70
2022-10-06T06:36:40.472Z,26.70
2022-10-06T06:39:10.717Z,26.70
2022-10-06T06:41:41.187Z,26.70
2022-10-06T06:44:11.409Z,26.70
2022-10-06T06:46:43.203Z,26.70
2022-10-06T06:49:12.808Z,26.70
2022-10-06T06:51:43.036Z,26.70
2022-10-06T06:54:12.895Z,26.70
2022-10-06T06:56:41.369Z,26.70
2022-10-06T06:59:12.072Z,26.70
2022-10-06T07:01:44.476Z,26.70
2022-10-06T07:04:16.037Z,26.70
2022-10-06T07:06:53.351Z,26.70
2022-10-06T07:09:21.799Z,26.70
2022-10-06T07:11:50.494Z,26.70
2022-10-06T07:14:18.329Z,26.70
2022-10-06T07:17:03.559Z,26.70
2022-10-06T07:19:50.511Z,26.70
2022-10-06T07:22:39.086Z,26.70
2022-10-06T07:25:17.377Z,26.70
2022-10-06T07:27:50.951Z,26.70
2022-10-06T07:30:22.626Z,26.80
2022-10-06T07:32:52.341Z,26.80
2022-10-06T07:35:23.886Z,26.80
2022-10-06T07:37:53.236Z,26.80
2022-10-06T07:40:21.334Z,26.80
2022-10-06T07:42:49.114Z,26.70
2022-10-06T07:45:36.553Z,26.80
2022-10-06T07:48:05.749Z,26.80
2022-10-06T07:50:35.067Z,26.80
2022-10-06T07:53:04.904Z,26.80
2022-10-06T07:55:33.131Z,26.80
2022-10-06T07:58:00.994Z,26.80
2022-10-06T08:00:28.922Z,26.80
2022-10-06T08:02:56.798Z,26.80
2022-10-06T08:05:24.574Z,26.80
2022-10-06T08:07:54.953Z,26.80
2022-10-06T08:10:22.848Z,26.80
2022-10-06T08:12:50.768Z,26.80
2022-10-06T08:15:20.498Z,26.80
2022-10-06T08:17:48.378Z,26.80
2022-10-06T08:20:18.432Z,26.80
2022-10-06T08:22:49.358Z,26.70
2022-10-06T08:25:18.668Z,26.70
2022-10-06T08:27:51.292Z,26.70
2022-10-06T08:30:21.228Z,26.80
2022-10-06T08:32:49.880Z,26.80
2022-10-06T08:35:17.788Z,26.70
2022-10-06T08:37:48.096Z,26.70
2022-10-06T08:40:17.803Z,26.70
2022-10-06T08:42:51.012Z,26.70
2022-10-06T08:45:24.446Z,26.70
2022-10-06T08:48:02.605Z,26.70
2022-10-06T08:50:38.483Z,26.70
2022-10-06T08:53:21.033Z,26.70
2022-10-06T08:55:58.219Z,26.70
2022-10-06T08:58:41.641Z,26.70
2022-10-06T09:01:18.650Z,26.70
2022-10-06T09:03:49.443Z,26.70
2022-10-06T09:06:36.282Z,26.70
2022-10-06T09:09:21.317Z,26.70
2022-10-06T09:12:07.687Z,26.70
2022-10-06T09:14:42.841Z,26.70
2022-10-06T09:17:19.088Z,26.70
2022-10-06T09:19:53.236Z,26.70
2022-10-06T09:22:24.339Z,26.70
2022-10-06T09:24:58.621Z,26.70
2022-10-06T09:27:34.209Z,26.70
2022-10-06T09:30:04.581Z,26.80
2022-10-06T09:32:33.368Z,26.80
2022-10-06T09:35:02.570Z,26.90
2022-10-06T09:37:30.463Z,26.90
2022-10-06T09:39:58.652Z,27.00
2022-10-06T09:42:35.534Z,27.00
2022-10-06T09:45:07.549Z,27.10
2022-10-06T09:47:45.060Z,27.10
2022-10-06T09:50:23.824Z,27.20
2022-10-06T09:53:16.700Z,27.30
2022-10-06T09:55:52.168Z,27.40
2022-10-06T09:58:26.451Z,27.50
2022-10-06T10:00:57.624Z,27.60
2022-10-06T10:03:27.255Z,27.70
2022-10-06T10:05:56.266Z,27.80
2022-10-06T10:08:27.456Z,27.90
2022-10-06T10:11:37.495Z,28.00
2022-10-06T10:14:19.618Z,28.10
2022-10-06T10:16:53.115Z,28.10
2022-10-06T10:19:32.836Z,28.20
2022-10-06T10:22:00.771Z,28.20
2022-10-06T10:24:50.999Z,28.20
2022-10-06T10:27:26.544Z,28.30
2022-10-06T10:30:06.420Z,28.30
2022-10-06T10:32:51.013Z,28.30
2022-10-06T10:35:26.452Z,28.30
2022-10-06T10:38:02.454Z,28.30
2022-10-06T10:40:38.352Z,28.30
2022-10-06T10:43:17.448Z,28.30
2022-10-06T10:45:51.208Z,28.30
2022-10-06T10:48:28.541Z,28.30
2022-10-06T10:51:05.736Z,28.20
2022-10-06T10:53:47.701Z,28.20
2022-10-06T10:56:20.797Z,28.20
2022-10-06T10:58:52.908Z,28.20
2022-10-06T11:01:33.518Z,28.20
2022-10-06T11:04:02.441Z,28.20
2022-10-06T11:06:57.253Z,28.20
2022-10-06T11:09:39.693Z,28.20
2022-10-06T11:12:23.487Z,28.20
2022-10-06T11:14:59.794Z,28.20
2022-10-06T11:17:44.492Z,28.20
2022-10-06T11:20:40.076Z,28.20
2022-10-06T11:23:37.091Z,28.20
2022-10-06T11:26:17.446Z,28.20
2022-10-06T11:28:55.935Z,28.20
2022-10-06T11:31:35.306Z,28.20
2022-10-06T11:34:07.368Z,28.20
2022-10-06T11:36:45.717Z,28.20
2022-10-06T11:39:24.677Z,28.20
2022-10-06T11:42:01.910Z,28.20
2022-10-06T11:44:40.276Z,28.20
2022-10-06T11:47:12.508Z,28.20
2022-10-06T11:49:59.274Z,28.20
2022-10-06T11:52:53.840Z,28.20
2022-10-06T11:55:26.201Z,28.20
2022-10-06T12:01:04.307Z,28.20
2022-10-06T12:04:05.405Z,28.20
2022-10-06T12:07:02.056Z,28.20
2022-10-06T12:10:15.133Z,28.20
2022-10-06T12:13:13.920Z,28.20
2022-10-06T12:19:34.231Z,28.20
2022-10-06T12:22:17.868Z,28.20
2022-10-06T12:25:06.595Z,28.20
2022-10-06T12:28:11.500Z,28.20
2022-10-06T12:31:08.566Z,28.20
2022-10-06T12:33:49.564Z,28.20
2022-10-06T12:36:30.127Z,28.20
2022-10-06T12:39:26.626Z,28.20
2022-10-06T12:42:09.411Z,28.20
2022-10-06T12:44:42.757Z,28.20
2022-10-06T12:47:23.064Z,28.20
2022-10-06T12:49:57.997Z,28.20
2022-10-06T12:52:55.862Z,28.20
2022-10-06T12:55:45.909Z,28.20
2022-10-06T12:58:34.014Z,28.20
2022-10-06T13:01:11.519Z,28.20
2022-10-06T13:03:50.102Z,28.20
2022-10-06T13:06:28.120Z,28.20
2022-10-06T13:09:16.246Z,28.20
2022-10-06T13:11:51.487Z,28.20
2022-10-06T13:14:20.596Z,28.20
2022-10-06T13:17:06.244Z,28.20
2022-10-06T13:19:50.974Z,28.20
2022-10-06T13:22:26.071Z,28.20
2022-10-06T13:25:04.687Z,28.20
2022-10-06T13:27:42.387Z,28.20
2022-10-06T13:30:25.430Z,28.20
2022-10-06T13:32:59.544Z,28.20
2022-10-06T13:35:29.367Z,28.20
2022-10-06T13:38:03.940Z,28.20
2022-10-06T13:40:45.565Z,28.20
2022-10-06T13:43:22.738Z,28.20
2022-10-06T13:45:57.603Z,28.20
2022-10-06T13:48:31.990Z,28.20
2022-10-06T13:51:06.643Z,28.20
2022-10-06T13:53:36.095Z,28.20
2022-10-06T13:56:07.804Z,28.20
2022-10-06T13:58:38.745Z,28.20
2022-10-06T14:01:10.986Z,28.20
2022-10-06T14:03:44.415Z,28.20
2022-10-06T14:06:21.905Z,28.20
2022-10-06T14:08:56.735Z,28.20
2022-10-06T14:11:34.100Z,28.20
2022-10-06T14:14:14.897Z,28.20
2022-10-06T14:17:06.487Z,28.20
2022-10-06T14:19:41.024Z,28.20
2022-10-06T14:22:39.032Z,28.20
2022-10-06T14:25:20.105Z,28.20
2022-10-06T14:27:55.949Z,28.20
2022-10-06T14:30:29.820Z,28.20
2022-10-06T14:33:06.595Z,28.20
2022-10-06T14:35:37.740Z,28.20
2022-10-06T14:38:09.856Z,28.20
2022-10-06T14:40:47.243Z,28.20
2022-10-06T14:43:22.517Z,28.20
2022-10-06T14:46:06.327Z,28.20
2022-10-06T14:48:42.276Z,28.20
2022-10-06T14:51:12.663Z,28.20
2022-10-06T14:53:48.823Z,28.20
2022-10-06T14:56:20.725Z,28.20
2022-10-06T14:59:00.519Z,28.20
2022-10-06T15:01:34.472Z,28.20
2022-10-06T15:04:14.581Z,28.20
2022-10-06T15:07:09.087Z,28.20
2022-10-06T15:09:38.489Z,28.20
2022-10-06T15:12:13.321Z,28.10
2022-10-06T15:14:44.054Z,28.10
2022-10-06T15:17:24.270Z,28.10
2022-10-06T15:19:56.173Z,28.10
2022-10-06T15:22:32.744Z,28.10
2022-10-06T15:25:05.015Z,28.10
2022-10-06T15:28:02.419Z,28.10
2022-10-06T15:30:34.953Z,28.10
2022-10-06T15:33:08.450Z,28.10
2022-10-06T15:35:39.724Z,28.10
2022-10-06T15:38:10.532Z,28.10
2022-10-06T15:40:43.263Z,28.10
2022-10-06T15:43:12.591Z,28.10
2022-10-06T15:45:55.562Z,28.10
2022-10-06T15:48:30.595Z,28.10
2022-10-06T15:51:00.407Z,28.10
2022-10-06T15:53:29.934Z,28.10
2022-10-06T15:55:59.217Z,28.10
2022-10-06T15:58:27.050Z,28.10
2022-10-06T16:00:55.073Z,28.10
2022-10-06T16:03:40.100Z,28.10
2022-10-06T16:06:16.646Z,28.00
2022-10-06T16:08:44.395Z,28.00
2022-10-06T16:11:12.160Z,28.00
2022-10-06T16:13:39.887Z,28.00
2022-10-06T16:16:08.035Z,28.00
2022-10-06T16:18:35.977Z,28.00
2022-10-06T16:21:03.883Z,28.00
2022-10-06T16:23:32.985Z,28.00
2022-10-06T16:26:02.615Z,28.00
2022-10-06T16:28:30.433Z,28.00
2022-10-06T16:30:58.191Z,28.00
2022-10-06T16:33:25.981Z,28.00
2022-10-06T16:35:56.722Z,28.00
2022-10-06T16:38:25.165Z,28.00
2022-10-06T16:40:58.443Z,27.90
2022-10-06T16:43:32.461Z,27.90
2022-10-06T16:46:03.026Z,27.90
2022-10-06T16:48:31.685Z,27.90
2022-10-06T16:51:11.593Z,27.90
2022-10-06T16:53:41.853Z,27.90
2022-10-06T16:56:14.507Z,27.90
2022-10-06T16:58:44.433Z,27.90
2022-10-06T17:01:15.356Z,27.90
2022-10-06T17:03:43.804Z,27.90
2022-10-06T17:06:15.173Z,27.90
2022-10-06T17:08:44.389Z,27.90
2022-10-06T17:11:15.909Z,27.80
2022-10-06T17:13:47.353Z,27.80
2022-10-06T17:16:18.258Z,27.80
2022-10-06T17:18:48.449Z,27.80
2022-10-06T17:21:43.159Z,27.90
2022-10-06T17:24:06.381Z,27.80
2022-10-06T17:26:38.535Z,27.80
2022-10-06T17:29:12.837Z,27.80
2022-10-06T17:31:43.236Z,27.80
2022-10-06T17:34:17.057Z,27.80
2022-10-06T17:36:50.765Z,27.80
2022-10-06T17:39:22.179Z,27.70
2022-10-06T17:41:53.876Z,27.70
2022-10-06T17:44:26.793Z,27.70
2022-10-06T17:46:57.410Z,27.70
2022-10-06T17:49:26.914Z,27.70
2022-10-06T17:51:56.480Z,27.70
2022-10-06T17:54:27.229Z,27.70
2022-10-06T17:56:59.261Z,27.70
2022-10-06T17:59:30.425Z,27.70
2022-10-06T18:02:02.454Z,27.70
2022-10-06T18:04:31.245Z,27.60
2022-10-06T18:06:58.970Z,27.60
2022-10-06T18:09:26.879Z,27.60
2022-10-06T18:11:56.476Z,27.60
2022-10-06T18:14:27.429Z,27.60
2022-10-06T18:16:57.978Z,27.60
2022-10-06T18:19:29.845Z,27.60
2022-10-06T18:22:01.062Z,27.60
2022-10-06T18:24:31.876Z,27.60
2022-10-06T18:27:02.217Z,27.50
2022-10-06T18:29:33.499Z,27.50
2022-10-06T18:32:56.670Z,27.50
2022-10-06T18:37:38.370Z,27.50
2022-10-06T18:40:10.053Z,27.50
2022-10-06T18:42:39.868Z,27.50
2022-10-06T18:45:28.819Z,27.50
2022-10-06T18:48:13.991Z,27.50
2022-10-06T18:50:42.570Z,27.40
2022-10-06T18:53:10.245Z,27.40
2022-10-06T18:55:37.978Z,27.40
2022-10-06T18:58:07.031Z,27.40
2022-10-06T19:00:34.853Z,27.40
2022-10-06T19:03:02.548Z,27.40
2022-10-06T19:05:30.986Z,27.40
2022-10-06T19:07:58.745Z,27.40
2022-10-06T19:10:26.540Z,27.40
2022-10-06T19:12:54.236Z,27.30
2022-10-06T19:15:23.330Z,27.30
2022-10-06T19:17:51.060Z,27.30
2022-10-06T19:20:19.269Z,27.30
2022-10-06T19:22:47.402Z,27.30
2022-10-06T19:25:18.449Z,27.30
2022-10-06T19:27:46.246Z,27.30
2022-10-06T19:30:14.478Z,27.30
2022-10-06T19:32:43.816Z,27.30
2022-10-06T19:35:11.596Z,27.30
2022-10-06T19:37:40.336Z,27.20
2022-10-06T19:40:11.218Z,27.20
2022-10-06T19:42:47.313Z,27.20
2022-10-06T19:45:15.967Z,27.20
2022-10-06T19:47:46.333Z,27.20
2022-10-06T19:50:14.988Z,27.20
2022-10-06T19:52:43.547Z,27.20
2022-10-06T19:55:11.362Z,27.20
2022-10-06T19:57:39.099Z,27.20
2022-10-06T20:00:10.161Z,27.20
2022-10-06T20:02:42.181Z,27.20
2022-10-06T20:05:14.086Z,27.20
2022-10-06T20:07:44.193Z,27.10
2022-10-06T20:10:13.429Z,27.10
2022-10-06T20:12:42.296Z,27.10
2022-10-06T20:15:12.741Z,27.10
2022-10-06T20:17:42.443Z,27.10
2022-10-06T20:20:13.730Z,27.10
2022-10-06T20:22:41.454Z,27.10
2022-10-06T20:25:09.633Z,27.10
2022-10-06T20:27:37.363Z,27.10
2022-10-06T20:30:06.308Z,27.10
2022-10-06T20:32:34.094Z,27.10
2022-10-06T20:35:03.699Z,27.10
2022-10-06T20:37:32.740Z,27.00
2022-10-06T20:40:18.348Z,27.00
2022-10-06T20:42:49.345Z,27.00
2022-10-06T20:45:17.818Z,27.00
2022-10-06T20:47:47.910Z,27.00
2022-10-06T20:50:16.027Z,27.00
2022-10-06T20:52:46.866Z,27.00
2022-10-06T20:55:14.801Z,27.00
2022-10-06T20:57:42.697Z,27.00
2022-10-06T21:00:12.207Z,27.00
2022-10-06T21:02:40.635Z,27.00
2022-10-06T21:05:10.057Z,27.00
2022-10-06T21:07:38.048Z,27.00
2022-10-06T21:10:09.234Z,27.00
2022-10-06T21:12:37.117Z,26.90
2022-10-06T21:15:05.821Z,26.90
2022-10-06T21:17:33.706Z,26.90
2022-10-06T21:20:01.574Z,26.90
2022-10-06T21:22:31.409Z,26.90
2022-10-06T21:24:59.305Z,26.90
2022-10-06T21:27:29.361Z,26.90
2022-10-06T21:29:57.294Z,26.90
2022-10-06T21:32:25.810Z,26.90
2022-10-06T21:34:56.547Z,26.90
2022-10-06T21:37:24.496Z,26.90
2022-10-06T21:39:52.505Z,26.90
2022-10-06T21:42:20.362Z,26.90
2022-10-06T21:44:49.613Z,26.90
2022-10-06T21:47:17.536Z,26.80
2022-10-06T21:49:45.470Z,26.90
2022-10-06T21:52:13.362Z,26.80
2022-10-06T21:54:41.231Z,26.80
2022-10-06T21:57:09.104Z,26.80
2022-10-06T21:59:36.970Z,26.80
2022-10-06T22:02:06.211Z,26.80
2022-10-06T22:04:34.492Z,26.80
2022-10-06T22:07:02.403Z,26.80
2022-10-06T22:09:30.317Z,26.80
2022-10-06T22:11:58.444Z,26.80
2022-10-06T22:14:26.501Z,26.80
2022-10-06T22:16:54.487Z,26.80
2022-10-06T22:19:23.715Z,26.80
2022-10-06T22:21:51.689Z,26.80
2022-10-06T22:24:22.081Z,26.80
2022-10-06T22:26:50.949Z,26.80
2022-10-06T22:29:21.019Z,26.80
2022-10-06T22:31:50.168Z,26.80
2022-10-06T22:34:21.264Z,26.80
2022-10-06T22:36:50.467Z,26.80
2022-10-06T22:39:18.799Z,26.80
2022-10-06T22:41:46.758Z,26.70
2022-10-06T22:44:14.673Z,26.70
2022-10-06T22:46:42.671Z,26.70
2022-10-06T22:49:10.901Z,26.70
2022-10-06T22:51:38.821Z,26.70
2022-10-06T22:54:08.026Z,26.70
2022-10-06T22:56:35.956Z,26.70
2022-10-06T22:59:04.449Z,26.70
2022-10-06T23:01:32.330Z,26.70
2022-10-06T23:04:00.229Z,26.70
2022-10-06T23:06:29.876Z,26.70
2022-10-06T23:08:58.138Z,26.70
2022-10-06T23:11:28.042Z,26.70
2022-10-06T23:13:56.191Z,26.70
2022-10-06T23:16:24.138Z,26.70
2022-10-06T23:18:52.294Z,26.70
2022-10-06T23:21:22.747Z,26.70
2022-10-06T23:23:52.781Z,26.60
2022-10-06T23:26:21.888Z,26.60
2022-10-06T23:28:54.969Z,26.60
2022-10-06T23:31:23.896Z,26.60
2022-10-06T23:33:52.451Z,26.60
2022-10-06T23:36:21.140Z,26.60
2022-10-06T23:38:49.027Z,26.60
2022-10-06T23:41:17.206Z,26.60
2022-10-06T23:43:45.297Z,26.60
2022-10-06T23:46:15.017Z,26.60
2022-10-06T23:48:43.403Z,26.60
2022-10-06T23:51:15.268Z,26.60
2022-10-06T23:53:44.094Z,26.60
2022-10-06T23:56:12.269Z,26.60
2022-10-06T23:58:41.722Z,26.60
